Terminal Aerodrome Forecast
Issued by NWS

Home | Current Version | Previous Version | Text Only | Print | Product List | Glossary On
Versions: 1 2 3 4 5 6 7 8 9 10 11 12 13
000
FTAK31 PAFA 220536 CCA
TAFAMC
TAF COR
PAMC 220536Z 2206/2306 VRB04KT 1 1/2SM -SN BR OVC020
      TEMPO 2206/2208 3/4SM -SN BR SCT007 BKN012 OVC030
     FM220800 06002KT 1/2SM -SN FZFG OVC007
     FM221400 00000KT 1 1/2SM -SN BR OVC015
     FM221700 00000KT 4SM -SN OVC050=

USA.gov is the U.S. government's official web portal to all federal, state and local government web resources and services.